createdAt,value
2023-02-09T00:04:27.544Z,86.20
2023-02-09T00:09:33.550Z,96.57
2023-02-09T00:14:37.990Z,100.22
2023-02-09T00:19:42.535Z,99.82
2023-02-09T00:24:48.360Z,92.40
2023-02-09T00:29:53.259Z,97.25
2023-02-09T00:34:57.882Z,95.83
2023-02-09T00:40:04.062Z,94.50
2023-02-09T00:45:09.649Z,91.68
2023-02-09T00:55:20.133Z,66.10
2023-02-09T01:00:24.934Z,69.47
2023-02-09T01:05:29.514Z,70.73
2023-02-09T01:10:35.444Z,62.38
2023-02-09T01:15:41.111Z,62.42
2023-02-09T01:20:46.966Z,55.73
2023-02-09T01:26:02.042Z,54.63
2023-02-09T01:31:07.950Z,54.83
2023-02-09T01:36:12.772Z,60.33
2023-02-09T01:41:18.916Z,50.67
2023-02-09T01:46:24.484Z,51.78
2023-02-09T01:56:38.384Z,72.80
2023-02-09T02:01:44.400Z,79.82
2023-02-09T02:06:49.747Z,52.70
2023-02-09T02:11:56.432Z,50.60
2023-02-09T02:17:12.796Z,110.60
2023-02-09T02:22:45.795Z,49.58
2023-02-09T02:28:07.368Z,47.38
2023-02-09T02:33:33.797Z,42.00
2023-02-09T02:38:44.466Z,42.60
2023-02-09T02:43:57.283Z,42.13
2023-02-09T02:49:09.889Z,37.65
2023-02-09T02:54:18.212Z,39.03
2023-02-09T02:59:26.168Z,39.45
2023-02-09T03:04:34.432Z,44.80
2023-02-09T03:09:38.896Z,44.03
2023-02-09T03:14:49.489Z,44.85
2023-02-09T03:20:04.452Z,45.05
2023-02-09T03:25:13.953Z,42.97
2023-02-09T03:30:19.497Z,44.03
2023-02-09T03:40:31.675Z,40.72
2023-02-09T03:45:36.121Z,36.47
2023-02-09T03:50:42.384Z,35.40
2023-02-09T03:55:47.396Z,36.17
2023-02-09T04:00:51.852Z,43.28
2023-02-09T04:05:57.777Z,44.47
2023-02-09T04:11:02.159Z,41.10
2023-02-09T04:16:07.376Z,37.72
2023-02-09T04:21:13.319Z,40.38
2023-02-09T04:26:18.046Z,48.13
2023-02-09T04:31:22.628Z,55.90
2023-02-09T04:36:28.649Z,56.37
2023-02-09T04:41:32.996Z,60.00
2023-02-09T04:46:37.325Z,69.90
2023-02-09T04:51:43.484Z,65.10
2023-02-09T04:56:47.875Z,64.38
2023-02-09T05:01:52.641Z,68.18
2023-02-09T05:07:00.678Z,69.63
2023-02-09T05:12:05.592Z,65.97
2023-02-09T05:17:10.153Z,63.42
2023-02-09T05:22:16.085Z,57.90
2023-02-09T05:27:20.734Z,67.28
2023-02-09T05:32:25.055Z,70.33
2023-02-09T05:37:30.914Z,66.10
2023-02-09T05:42:35.558Z,67.57
2023-02-09T05:47:39.990Z,66.38
2023-02-09T05:52:46.604Z,66.53
2023-02-09T05:57:51.013Z,62.17
2023-02-09T06:02:56.029Z,63.67
2023-02-09T06:08:02.148Z,58.55
2023-02-09T06:13:06.566Z,63.30
2023-02-09T06:18:11.257Z,62.03
2023-02-09T06:23:17.035Z,63.70
2023-02-09T06:28:21.731Z,66.18
2023-02-09T06:33:28.355Z,64.87
2023-02-09T06:38:38.413Z,57.63
2023-02-09T06:43:46.014Z,68.65
2023-02-09T06:48:53.751Z,66.60
2023-02-09T06:54:02.498Z,66.57
2023-02-09T06:59:08.996Z,64.70
2023-02-09T07:04:16.079Z,71.07
2023-02-09T07:09:25.071Z,53.97
2023-02-09T07:14:30.399Z,57.35
2023-02-09T07:19:34.890Z,66.07
2023-02-09T07:24:40.859Z,55.42
2023-02-09T07:29:45.786Z,49.85
2023-02-09T07:34:50.289Z,49.33
2023-02-09T07:39:56.098Z,40.58
2023-02-09T07:45:00.974Z,43.40
2023-02-09T07:50:06.438Z,39.00
2023-02-09T07:55:12.282Z,42.08
2023-02-09T08:00:18.307Z,39.95
2023-02-09T08:05:28.088Z,50.92
2023-02-09T08:10:34.206Z,49.97
2023-02-09T08:15:42.258Z,46.63
2023-02-09T08:20:47.816Z,41.17
2023-02-09T08:25:54.160Z,39.80
2023-02-09T08:30:58.758Z,36.83
2023-02-09T08:36:03.469Z,35.03
2023-02-09T08:41:12.227Z,35.55
2023-02-09T08:46:16.998Z,34.20
2023-02-09T08:51:21.705Z,33.57
2023-02-09T08:56:27.816Z,33.77
2023-02-09T09:01:32.607Z,32.25
2023-02-09T09:06:37.193Z,35.90
2023-02-09T09:11:43.064Z,36.22
2023-02-09T09:16:47.455Z,36.65
2023-02-09T09:21:51.934Z,34.50
2023-02-09T09:26:58.203Z,39.90
2023-02-09T09:32:02.688Z,35.00
2023-02-09T09:37:07.400Z,35.92
2023-02-09T09:42:24.819Z,44.53
2023-02-09T09:47:37.623Z,37.53
2023-02-09T09:52:45.210Z,39.10
2023-02-09T09:57:52.514Z,40.25
2023-02-09T10:02:56.782Z,33.85
2023-02-09T10:08:07.005Z,34.08
2023-02-09T10:13:20.862Z,39.58
2023-02-09T10:18:26.450Z,42.08
2023-02-09T10:23:40.261Z,38.58
2023-02-09T10:28:48.140Z,36.55
2023-02-09T10:33:58.733Z,37.08
2023-02-09T10:39:15.205Z,37.33
2023-02-09T10:44:25.235Z,40.92
2023-02-09T10:49:32.388Z,43.33
2023-02-09T10:54:36.800Z,40.28
2023-02-09T10:59:42.994Z,39.85
2023-02-09T11:04:48.977Z,36.85
2023-02-09T11:09:54.776Z,31.02
2023-02-09T11:15:02.833Z,26.02
2023-02-09T11:20:24.604Z,29.85
2023-02-09T11:25:34.416Z,26.05
2023-02-09T11:30:55.566Z,30.83
2023-02-09T11:36:17.204Z,30.20
2023-02-09T11:41:47.151Z,25.75
2023-02-09T11:47:00.188Z,22.30
2023-02-09T11:52:06.481Z,21.95
2023-02-09T11:57:22.252Z,19.33
2023-02-09T12:02:46.421Z,17.65
2023-02-09T12:08:14.291Z,18.70
2023-02-09T12:13:31.740Z,16.35
2023-02-09T12:18:38.113Z,16.70
2023-02-09T12:23:43.716Z,16.63
2023-02-09T12:28:50.023Z,15.50
2023-02-09T12:34:29.120Z,14.38
2023-02-09T12:39:35.122Z,14.20
2023-02-09T12:44:40.469Z,14.05
2023-02-09T12:49:46.549Z,14.60
2023-02-09T12:54:52.672Z,15.05
2023-02-09T13:00:35.500Z,14.85
2023-02-09T13:05:46.176Z,14.35
2023-02-09T13:10:57.886Z,16.75
2023-02-09T13:16:24.598Z,16.33
2023-02-09T13:21:40.641Z,18.20
2023-02-09T13:26:52.526Z,16.38
2023-02-09T13:32:05.169Z,16.08
2023-02-09T13:37:23.237Z,17.73
2023-02-09T13:42:28.900Z,17.40
2023-02-09T13:52:40.675Z,15.45
2023-02-09T13:57:47.608Z,19.02
2023-02-09T14:02:55.711Z,18.30
2023-02-09T14:08:03.458Z,17.35
2023-02-09T14:13:18.487Z,18.92
2023-02-09T14:18:29.765Z,17.52
2023-02-09T14:23:35.724Z,18.55
2023-02-09T14:28:41.047Z,13.98
2023-02-09T14:33:49.366Z,14.53
2023-02-09T14:39:11.418Z,19.80
2023-02-09T14:44:21.724Z,15.75
2023-02-09T14:49:26.849Z,16.98
2023-02-09T14:54:34.537Z,16.37
2023-02-09T14:59:38.854Z,16.92
2023-02-09T15:04:43.498Z,17.40
2023-02-09T15:09:50.601Z,15.57
2023-02-09T15:14:56.711Z,16.85
2023-02-09T15:20:01.211Z,16.15
2023-02-09T15:25:08.398Z,13.18
2023-02-09T15:30:16.097Z,14.20
2023-02-09T15:35:22.953Z,14.80
2023-02-09T15:40:50.484Z,19.17
2023-02-09T15:46:12.149Z,14.73
2023-02-09T15:51:18.161Z,16.75
2023-02-09T15:56:24.352Z,17.13
2023-02-09T16:01:28.871Z,16.58
2023-02-09T16:06:35.727Z,17.67
2023-02-09T16:11:42.271Z,18.42
2023-02-09T16:16:46.661Z,18.48
2023-02-09T16:21:54.386Z,20.83
2023-02-09T16:27:01.949Z,25.92
2023-02-09T16:32:08.059Z,29.00
2023-02-09T16:37:16.379Z,26.73
2023-02-09T16:42:22.267Z,33.38
2023-02-09T16:52:33.015Z,25.98
2023-02-09T16:57:38.811Z,24.17
2023-02-09T17:07:54.836Z,28.05
2023-02-09T17:13:04.745Z,40.75
2023-02-09T17:18:13.248Z,43.33
2023-02-09T17:23:19.260Z,41.92
2023-02-09T17:28:25.509Z,39.00
2023-02-09T17:33:33.266Z,37.15
2023-02-09T17:38:41.004Z,35.28
2023-02-09T17:43:47.697Z,32.63
2023-02-09T17:48:52.175Z,32.72
2023-02-09T17:53:57.735Z,34.42
2023-02-09T17:59:13.468Z,34.85
2023-02-09T18:04:20.520Z,31.40
2023-02-09T18:09:25.039Z,32.17
2023-02-09T18:14:32.688Z,33.38
2023-02-09T18:19:37.255Z,34.17
2023-02-09T18:24:42.057Z,32.60
2023-02-09T18:29:47.815Z,28.85
2023-02-09T18:39:56.908Z,29.90
2023-02-09T18:45:02.964Z,28.77
2023-02-09T18:50:07.959Z,48.50
2023-02-09T18:55:12.363Z,34.33
2023-02-09T19:00:20.473Z,31.92
2023-02-09T19:05:26.234Z,28.00
2023-02-09T19:15:40.435Z,36.38
2023-02-09T19:20:44.973Z,51.03
2023-02-09T19:25:49.377Z,30.38
2023-02-09T19:30:55.398Z,32.67
2023-02-09T19:41:10.443Z,30.98
2023-02-09T19:46:16.968Z,38.90
2023-02-09T19:51:21.459Z,33.90
2023-02-09T19:56:25.791Z,30.45
2023-02-09T20:01:32.400Z,34.58
2023-02-09T20:06:36.899Z,32.05
2023-02-09T20:11:41.343Z,33.00
2023-02-09T20:16:47.058Z,31.98
2023-02-09T20:26:55.435Z,34.08
2023-02-09T20:32:02.060Z,30.48
2023-02-09T20:37:07.258Z,29.65
2023-02-09T20:42:28.873Z,31.33
2023-02-09T20:47:35.020Z,34.63
2023-02-09T20:57:44.047Z,25.15
2023-02-09T21:02:49.922Z,25.88
2023-02-09T21:07:55.560Z,25.95
2023-02-09T21:13:00.153Z,24.77
2023-02-09T21:18:06.800Z,23.95
2023-02-09T21:23:11.341Z,23.35
2023-02-09T21:28:15.913Z,22.75
2023-02-09T21:33:21.788Z,22.55
2023-02-09T21:38:26.101Z,25.77
2023-02-09T21:43:30.400Z,29.27
2023-02-09T21:48:54.707Z,32.65
2023-02-09T21:53:59.203Z,23.02
2023-02-09T21:59:03.431Z,21.15
2023-02-09T22:04:09.457Z,20.65
2023-02-09T22:09:13.783Z,20.50
2023-02-09T22:14:18.062Z,22.48
2023-02-09T22:19:24.269Z,33.15
2023-02-09T22:24:30.052Z,30.40
2023-02-09T22:34:40.496Z,26.35
2023-02-09T22:39:46.613Z,22.65
2023-02-09T22:44:50.903Z,25.95
2023-02-09T22:49:56.720Z,23.38
2023-02-09T23:00:07.707Z,22.33
2023-02-09T23:05:13.625Z,22.48
2023-02-09T23:15:22.536Z,20.23
2023-02-09T23:20:28.431Z,22.42
2023-02-09T23:25:32.711Z,22.10
2023-02-09T23:30:36.955Z,21.35
2023-02-09T23:35:43.271Z,20.00
2023-02-09T23:40:47.588Z,22.30
2023-02-09T23:45:52.095Z,22.50
2023-02-09T23:51:01.090Z,21.53
2023-02-09T23:56:05.978Z,20.65
